sensor_id;sensor_type;location;lat;lon;timestamp;pressure;altitude;pressure_sealevel;temperature;humidity
5691;BME280;2870;42.680;23.364;2023-02-04T00:00:10;94951.47;;;2.77;84.58
5691;BME280;2870;42.680;23.364;2023-02-04T00:02:38;94947.50;;;2.73;85.78
5691;BME280;2870;42.680;23.364;2023-02-04T00:05:05;94948.47;;;2.75;86.07
5691;BME280;2870;42.680;23.364;2023-02-04T00:07:32;94944.28;;;2.63;86.52
5691;BME280;2870;42.680;23.364;2023-02-04T00:09:59;94927.06;;;2.34;88.09
5691;BME280;2870;42.680;23.364;2023-02-04T00:12:27;94930.97;;;2.56;88.26
5691;BME280;2870;42.680;23.364;2023-02-04T00:14:54;94927.94;;;2.54;88.19
5691;BME280;2870;42.680;23.364;2023-02-04T00:17:21;94917.38;;;2.58;88.00
5691;BME280;2870;42.680;23.364;2023-02-04T00:19:48;94911.84;;;2.52;88.65
5691;BME280;2870;42.680;23.364;2023-02-04T00:22:14;94908.31;;;2.57;88.94
5691;BME280;2870;42.680;23.364;2023-02-04T00:24:41;94908.91;;;2.39;88.75
5691;BME280;2870;42.680;23.364;2023-02-04T00:27:13;94911.13;;;2.46;88.82
5691;BME280;2870;42.680;23.364;2023-02-04T00:29:41;94906.50;;;2.13;90.10
5691;BME280;2870;42.680;23.364;2023-02-04T00:32:08;94907.09;;;2.47;89.07
5691;BME280;2870;42.680;23.364;2023-02-04T00:34:35;94901.06;;;2.43;88.85
5691;BME280;2870;42.680;23.364;2023-02-04T00:37:02;94907.91;;;2.36;88.69
5691;BME280;2870;42.680;23.364;2023-02-04T00:39:29;94903.03;;;2.54;89.23
5691;BME280;2870;42.680;23.364;2023-02-04T00:41:57;94904.44;;;2.72;87.42
5691;BME280;2870;42.680;23.364;2023-02-04T00:44:24;94904.84;;;2.46;87.89
5691;BME280;2870;42.680;23.364;2023-02-04T00:46:52;94898.16;;;2.24;88.61
5691;BME280;2870;42.680;23.364;2023-02-04T00:49:19;94888.31;;;2.29;89.23
5691;BME280;2870;42.680;23.364;2023-02-04T00:51:45;94898.22;;;2.07;89.99
5691;BME280;2870;42.680;23.364;2023-02-04T00:54:13;94894.19;;;2.08;90.50
5691;BME280;2870;42.680;23.364;2023-02-04T00:56:40;94892.88;;;2.21;89.96
5691;BME280;2870;42.680;23.364;2023-02-04T00:59:07;94889.16;;;2.12;90.33
5691;BME280;2870;42.680;23.364;2023-02-04T01:01:34;94825.56;;;2.01;89.58
5691;BME280;2870;42.680;23.364;2023-02-04T01:04:02;94890.94;;;2.10;90.09
5691;BME280;2870;42.680;23.364;2023-02-04T01:06:29;94877.06;;;2.16;89.27
5691;BME280;2870;42.680;23.364;2023-02-04T01:08:56;94868.22;;;2.23;89.72
5691;BME280;2870;42.680;23.364;2023-02-04T01:11:23;94858.72;;;2.12;89.38
5691;BME280;2870;42.680;23.364;2023-02-04T01:13:50;94859.47;;;2.13;89.67
5691;BME280;2870;42.680;23.364;2023-02-04T01:16:16;94853.38;;;2.20;88.70
5691;BME280;2870;42.680;23.364;2023-02-04T01:18:43;94845.91;;;2.04;88.91
5691;BME280;2870;42.680;23.364;2023-02-04T01:21:11;94851.13;;;2.19;88.78
5691;BME280;2870;42.680;23.364;2023-02-04T01:23:38;94838.41;;;2.04;89.43
5691;BME280;2870;42.680;23.364;2023-02-04T01:26:05;94847.22;;;2.44;88.58
5691;BME280;2870;42.680;23.364;2023-02-04T01:28:31;94835.63;;;2.04;90.15
5691;BME280;2870;42.680;23.364;2023-02-04T01:30:58;94829.28;;;2.09;90.23
5691;BME280;2870;42.680;23.364;2023-02-04T01:33:25;94824.06;;;2.00;90.55
5691;BME280;2870;42.680;23.364;2023-02-04T01:35:53;94819.75;;;2.10;90.20
5691;BME280;2870;42.680;23.364;2023-02-04T01:38:21;94812.16;;;2.17;89.96
5691;BME280;2870;42.680;23.364;2023-02-04T01:40:48;94815.25;;;2.43;88.83
5691;BME280;2870;42.680;23.364;2023-02-04T01:43:15;94810.19;;;2.11;89.63
5691;BME280;2870;42.680;23.364;2023-02-04T01:45:43;94801.03;;;2.28;88.77
5691;BME280;2870;42.680;23.364;2023-02-04T01:48:09;94801.03;;;2.28;88.96
5691;BME280;2870;42.680;23.364;2023-02-04T01:50:37;94802.72;;;2.36;88.41
5691;BME280;2870;42.680;23.364;2023-02-04T01:53:04;94789.47;;;2.24;88.83
5691;BME280;2870;42.680;23.364;2023-02-04T01:55:32;94794.41;;;2.01;89.65
5691;BME280;2870;42.680;23.364;2023-02-04T01:57:59;94805.66;;;2.08;89.37
5691;BME280;2870;42.680;23.364;2023-02-04T02:00:30;94788.56;;;2.10;90.22
5691;BME280;2870;42.680;23.364;2023-02-04T02:02:57;94797.63;;;2.10;89.65
5691;BME280;2870;42.680;23.364;2023-02-04T02:05:26;94780.75;;;2.08;89.67
5691;BME280;2870;42.680;23.364;2023-02-04T02:07:56;94786.09;;;2.01;90.37
5691;BME280;2870;42.680;23.364;2023-02-04T02:10:25;94802.31;;;2.21;89.46
5691;BME280;2870;42.680;23.364;2023-02-04T02:12:54;94790.78;;;2.53;88.43
5691;BME280;2870;42.680;23.364;2023-02-04T02:15:21;94778.88;;;2.28;87.92
5691;BME280;2870;42.680;23.364;2023-02-04T02:17:49;94734.19;;;1.77;88.88
5691;BME280;2870;42.680;23.364;2023-02-04T02:20:18;94778.00;;;2.08;89.02
5691;BME280;2870;42.680;23.364;2023-02-04T02:22:54;94776.06;;;2.39;88.72
5691;BME280;2870;42.680;23.364;2023-02-04T02:25:25;94768.25;;;2.37;88.12
5691;BME280;2870;42.680;23.364;2023-02-04T02:27:52;94758.72;;;2.33;87.63
5691;BME280;2870;42.680;23.364;2023-02-04T02:30:19;94747.25;;;2.18;88.08
5691;BME280;2870;42.680;23.364;2023-02-04T02:32:47;94723.88;;;2.13;88.38
5691;BME280;2870;42.680;23.364;2023-02-04T02:35:16;94720.28;;;2.24;88.30
5691;BME280;2870;42.680;23.364;2023-02-04T02:37:43;94712.34;;;2.09;88.13
5691;BME280;2870;42.680;23.364;2023-02-04T02:40:11;94696.41;;;2.21;87.96
5691;BME280;2870;42.680;23.364;2023-02-04T02:42:41;94693.28;;;2.05;88.08
5691;BME280;2870;42.680;23.364;2023-02-04T02:45:13;94694.19;;;2.13;87.91
5691;BME280;2870;42.680;23.364;2023-02-04T02:47:42;94674.47;;;2.28;87.54
5691;BME280;2870;42.680;23.364;2023-02-04T02:50:12;94683.38;;;2.16;87.27
5691;BME280;2870;42.680;23.364;2023-02-04T02:52:41;94690.38;;;2.22;86.94
5691;BME280;2870;42.680;23.364;2023-02-04T02:55:12;94684.19;;;2.10;87.53
5691;BME280;2870;42.680;23.364;2023-02-04T02:57:41;94674.66;;;2.06;87.71
5691;BME280;2870;42.680;23.364;2023-02-04T03:00:13;94691.38;;;2.19;86.71
5691;BME280;2870;42.680;23.364;2023-02-04T03:02:40;94700.91;;;2.24;86.82
5691;BME280;2870;42.680;23.364;2023-02-04T03:05:08;94694.91;;;2.20;86.99
5691;BME280;2870;42.680;23.364;2023-02-04T03:07:35;94699.50;;;2.11;86.82
5691;BME280;2870;42.680;23.364;2023-02-04T03:10:03;94683.63;;;2.18;86.61
5691;BME280;2870;42.680;23.364;2023-02-04T03:12:30;94687.41;;;2.15;86.37
5691;BME280;2870;42.680;23.364;2023-02-04T03:14:58;94697.03;;;2.38;86.11
5691;BME280;2870;42.680;23.364;2023-02-04T03:17:25;94693.50;;;2.37;86.06
5691;BME280;2870;42.680;23.364;2023-02-04T03:19:52;94705.31;;;2.08;86.21
5691;BME280;2870;42.680;23.364;2023-02-04T03:22:19;94691.44;;;2.13;86.06
5691;BME280;2870;42.680;23.364;2023-02-04T03:24:46;94692.47;;;2.41;84.91
5691;BME280;2870;42.680;23.364;2023-02-04T03:27:13;94686.19;;;2.40;84.72
5691;BME280;2870;42.680;23.364;2023-02-04T03:29:42;94681.88;;;2.45;84.39
5691;BME280;2870;42.680;23.364;2023-02-04T03:32:10;94668.72;;;2.21;85.29
5691;BME280;2870;42.680;23.364;2023-02-04T03:34:38;94678.31;;;2.20;85.91
5691;BME280;2870;42.680;23.364;2023-02-04T03:37:04;94683.03;;;2.25;85.75
5691;BME280;2870;42.680;23.364;2023-02-04T03:39:31;94688.34;;;2.23;85.65
5691;BME280;2870;42.680;23.364;2023-02-04T03:41:58;94680.50;;;2.27;85.45
5691;BME280;2870;42.680;23.364;2023-02-04T03:44:25;94680.31;;;2.49;85.04
5691;BME280;2870;42.680;23.364;2023-02-04T03:46:52;94680.47;;;2.62;83.83
5691;BME280;2870;42.680;23.364;2023-02-04T03:49:21;94669.81;;;2.66;83.53
5691;BME280;2870;42.680;23.364;2023-02-04T03:51:48;94659.97;;;2.96;82.55
5691;BME280;2870;42.680;23.364;2023-02-04T03:54:15;94659.63;;;2.56;83.23
5691;BME280;2870;42.680;23.364;2023-02-04T03:56:42;94670.34;;;2.41;84.16
5691;BME280;2870;42.680;23.364;2023-02-04T03:59:09;94649.59;;;2.53;84.12
5691;BME280;2870;42.680;23.364;2023-02-04T04:01:35;94642.28;;;2.55;83.56
5691;BME280;2870;42.680;23.364;2023-02-04T04:04:02;94639.25;;;2.53;83.88
5691;BME280;2870;42.680;23.364;2023-02-04T04:06:30;94633.78;;;2.72;82.76
5691;BME280;2870;42.680;23.364;2023-02-04T04:08:57;94636.34;;;2.89;82.85
5691;BME280;2870;42.680;23.364;2023-02-04T04:11:24;94615.03;;;2.84;82.26
5691;BME280;2870;42.680;23.364;2023-02-04T04:13:50;94623.47;;;2.73;83.83
5691;BME280;2870;42.680;23.364;2023-02-04T04:16:17;94565.50;;;2.56;82.91
5691;BME280;2870;42.680;23.364;2023-02-04T04:18:45;94615.34;;;2.99;82.78
5691;BME280;2870;42.680;23.364;2023-02-04T04:21:11;94609.44;;;3.08;82.38
5691;BME280;2870;42.680;23.364;2023-02-04T04:23:39;94598.13;;;3.06;81.56
5691;BME280;2870;42.680;23.364;2023-02-04T04:26:06;94610.78;;;3.02;81.86
5691;BME280;2870;42.680;23.364;2023-02-04T04:28:33;94621.38;;;2.79;82.97
5691;BME280;2870;42.680;23.364;2023-02-04T04:31:00;94614.50;;;2.36;85.16
5691;BME280;2870;42.680;23.364;2023-02-04T04:33:27;94621.84;;;2.58;84.85
5691;BME280;2870;42.680;23.364;2023-02-04T04:35:54;94616.00;;;2.37;85.26
5691;BME280;2870;42.680;23.364;2023-02-04T04:38:21;94619.19;;;2.47;85.73
5691;BME280;2870;42.680;23.364;2023-02-04T04:40:49;94630.66;;;2.81;84.52
5691;BME280;2870;42.680;23.364;2023-02-04T04:43:16;94628.06;;;2.64;84.33
5691;BME280;2870;42.680;23.364;2023-02-04T04:45:43;94636.16;;;2.62;85.29
5691;BME280;2870;42.680;23.364;2023-02-04T04:48:10;94631.41;;;2.82;84.55
5691;BME280;2870;42.680;23.364;2023-02-04T04:50:37;94639.03;;;2.76;85.44
5691;BME280;2870;42.680;23.364;2023-02-04T04:53:04;94643.56;;;2.98;84.95
5691;BME280;2870;42.680;23.364;2023-02-04T04:55:35;94643.44;;;3.09;84.54
5691;BME280;2870;42.680;23.364;2023-02-04T04:58:03;94637.44;;;3.05;84.81
5691;BME280;2870;42.680;23.364;2023-02-04T05:00:30;94640.53;;;3.01;84.97
5691;BME280;2870;42.680;23.364;2023-02-04T05:02:57;94645.50;;;2.84;86.09
5691;BME280;2870;42.680;23.364;2023-02-04T05:05:24;94633.81;;;2.66;87.09
5691;BME280;2870;42.680;23.364;2023-02-04T05:07:50;94654.38;;;3.01;87.46
5691;BME280;2870;42.680;23.364;2023-02-04T05:10:18;94625.91;;;3.01;86.70
5691;BME280;2870;42.680;23.364;2023-02-04T05:12:46;94635.72;;;2.77;89.12
5691;BME280;2870;42.680;23.364;2023-02-04T05:15:14;94650.53;;;3.04;88.55
5691;BME280;2870;42.680;23.364;2023-02-04T05:17:41;94639.84;;;3.14;88.50
5691;BME280;2870;42.680;23.364;2023-02-04T05:20:08;94651.25;;;2.86;89.39
5691;BME280;2870;42.680;23.364;2023-02-04T05:22:35;94672.81;;;3.17;88.56
5691;BME280;2870;42.680;23.364;2023-02-04T05:25:02;94677.28;;;3.02;89.05
5691;BME280;2870;42.680;23.364;2023-02-04T05:27:29;94661.16;;;3.25;89.43
5691;BME280;2870;42.680;23.364;2023-02-04T05:29:56;94677.84;;;2.95;89.92
5691;BME280;2870;42.680;23.364;2023-02-04T05:32:24;94669.66;;;3.08;89.58
5691;BME280;2870;42.680;23.364;2023-02-04T05:34:51;94691.13;;;3.45;87.56
5691;BME280;2870;42.680;23.364;2023-02-04T05:37:17;94672.84;;;3.55;85.63
5691;BME280;2870;42.680;23.364;2023-02-04T05:39:45;94687.25;;;3.72;83.84
5691;BME280;2870;42.680;23.364;2023-02-04T05:42:12;94679.59;;;3.79;83.42
5691;BME280;2870;42.680;23.364;2023-02-04T05:44:39;94682.16;;;3.77;82.80
5691;BME280;2870;42.680;23.364;2023-02-04T05:47:06;94685.31;;;4.18;81.71
5691;BME280;2870;42.680;23.364;2023-02-04T05:49:35;94684.44;;;4.10;81.33
5691;BME280;2870;42.680;23.364;2023-02-04T05:52:01;94684.81;;;4.01;81.29
5691;BME280;2870;42.680;23.364;2023-02-04T05:54:28;94685.94;;;4.11;80.25
5691;BME280;2870;42.680;23.364;2023-02-04T05:56:55;94671.75;;;4.15;80.28
5691;BME280;2870;42.680;23.364;2023-02-04T05:59:22;94657.22;;;3.90;79.51
5691;BME280;2870;42.680;23.364;2023-02-04T06:01:50;94664.50;;;3.93;79.17
5691;BME280;2870;42.680;23.364;2023-02-04T06:04:16;94673.50;;;3.99;78.35
5691;BME280;2870;42.680;23.364;2023-02-04T06:06:45;94673.00;;;3.82;78.10
5691;BME280;2870;42.680;23.364;2023-02-04T06:09:12;94663.69;;;3.98;78.01
5691;BME280;2870;42.680;23.364;2023-02-04T06:11:39;94670.47;;;4.16;77.41
5691;BME280;2870;42.680;23.364;2023-02-04T06:14:06;94659.00;;;4.06;77.45
5691;BME280;2870;42.680;23.364;2023-02-04T06:16:33;94675.97;;;4.35;77.40
5691;BME280;2870;42.680;23.364;2023-02-04T06:19:00;94670.22;;;4.33;76.31
5691;BME280;2870;42.680;23.364;2023-02-04T06:21:26;94669.38;;;4.38;76.19
5691;BME280;2870;42.680;23.364;2023-02-04T06:23:55;94681.13;;;4.44;75.77
5691;BME280;2870;42.680;23.364;2023-02-04T06:26:22;94688.81;;;4.38;75.94
5691;BME280;2870;42.680;23.364;2023-02-04T06:28:49;94669.50;;;4.45;75.90
5691;BME280;2870;42.680;23.364;2023-02-04T06:31:16;94677.69;;;4.38;75.42
5691;BME280;2870;42.680;23.364;2023-02-04T06:33:43;94681.97;;;4.39;74.74
5691;BME280;2870;42.680;23.364;2023-02-04T06:36:10;94678.16;;;4.55;73.75
5691;BME280;2870;42.680;23.364;2023-02-04T06:38:36;94685.47;;;4.85;74.15
5691;BME280;2870;42.680;23.364;2023-02-04T06:41:05;94683.78;;;4.95;72.26
5691;BME280;2870;42.680;23.364;2023-02-04T06:43:32;94683.59;;;5.06;71.50
5691;BME280;2870;42.680;23.364;2023-02-04T06:45:58;94684.00;;;4.84;72.36
5691;BME280;2870;42.680;23.364;2023-02-04T06:48:25;94686.97;;;4.86;71.35
5691;BME280;2870;42.680;23.364;2023-02-04T06:50:52;94684.38;;;4.61;72.45
5691;BME280;2870;42.680;23.364;2023-02-04T06:53:19;94679.47;;;4.67;72.37
5691;BME280;2870;42.680;23.364;2023-02-04T06:55:46;94679.13;;;4.58;71.99
5691;BME280;2870;42.680;23.364;2023-02-04T06:58:14;94674.81;;;4.89;71.69
5691;BME280;2870;42.680;23.364;2023-02-04T07:00:41;94670.03;;;4.57;71.99
5691;BME280;2870;42.680;23.364;2023-02-04T07:03:07;94658.97;;;4.84;71.31
5691;BME280;2870;42.680;23.364;2023-02-04T07:05:34;94657.91;;;4.73;70.24
5691;BME280;2870;42.680;23.364;2023-02-04T07:08:01;94671.38;;;4.83;70.42
5691;BME280;2870;42.680;23.364;2023-02-04T07:10:28;94658.97;;;4.84;70.26
5691;BME280;2870;42.680;23.364;2023-02-04T07:12:55;94663.59;;;5.08;69.32
5691;BME280;2870;42.680;23.364;2023-02-04T07:15:23;94663.34;;;5.32;69.58
5691;BME280;2870;42.680;23.364;2023-02-04T07:17:50;94653.19;;;5.35;68.66
5691;BME280;2870;42.680;23.364;2023-02-04T07:20:18;94666.69;;;5.17;68.80
5691;BME280;2870;42.680;23.364;2023-02-04T07:22:45;94662.09;;;5.07;69.21
5691;BME280;2870;42.680;23.364;2023-02-04T07:25:11;94667.50;;;5.52;68.53
5691;BME280;2870;42.680;23.364;2023-02-04T07:27:39;94653.81;;;5.54;67.72
5691;BME280;2870;42.680;23.364;2023-02-04T07:30:08;94659.56;;;5.69;67.20
5691;BME280;2870;42.680;23.364;2023-02-04T07:32:36;94649.34;;;5.24;67.85
5691;BME280;2870;42.680;23.364;2023-02-04T07:35:03;94648.41;;;5.69;66.97
5691;BME280;2870;42.680;23.364;2023-02-04T07:37:30;94657.16;;;5.87;66.23
5691;BME280;2870;42.680;23.364;2023-02-04T07:39:57;94658.84;;;6.03;65.73
5691;BME280;2870;42.680;23.364;2023-02-04T07:42:24;94652.19;;;5.58;66.46
5691;BME280;2870;42.680;23.364;2023-02-04T07:44:50;94664.66;;;5.92;66.19
5691;BME280;2870;42.680;23.364;2023-02-04T07:47:17;94663.47;;;5.87;66.01
5691;BME280;2870;42.680;23.364;2023-02-04T07:49:45;94663.44;;;5.53;66.75
5691;BME280;2870;42.680;23.364;2023-02-04T07:52:12;94655.50;;;6.04;65.60
5691;BME280;2870;42.680;23.364;2023-02-04T07:54:39;94650.78;;;6.54;64.68
5691;BME280;2870;42.680;23.364;2023-02-04T07:57:05;94646.28;;;6.72;64.62
5691;BME280;2870;42.680;23.364;2023-02-04T07:59:32;94648.53;;;6.53;64.19
5691;BME280;2870;42.680;23.364;2023-02-04T08:01:59;94647.69;;;6.86;63.13
5691;BME280;2870;42.680;23.364;2023-02-04T08:04:26;94652.31;;;7.12;62.16
5691;BME280;2870;42.680;23.364;2023-02-04T08:06:54;94654.75;;;6.87;61.95
5691;BME280;2870;42.680;23.364;2023-02-04T08:09:21;94655.38;;;6.73;63.03
5691;BME280;2870;42.680;23.364;2023-02-04T08:11:48;94654.66;;;6.30;63.59
5691;BME280;2870;42.680;23.364;2023-02-04T08:14:15;94654.72;;;6.59;63.88
5691;BME280;2870;42.680;23.364;2023-02-04T08:16:42;94660.34;;;6.25;64.52
5691;BME280;2870;42.680;23.364;2023-02-04T08:19:09;94662.50;;;5.98;65.33
5691;BME280;2870;42.680;23.364;2023-02-04T08:21:36;94657.28;;;6.57;63.98
5691;BME280;2870;42.680;23.364;2023-02-04T08:24:04;94664.50;;;7.02;63.79
5691;BME280;2870;42.680;23.364;2023-02-04T08:26:31;94656.84;;;6.24;64.01
5691;BME280;2870;42.680;23.364;2023-02-04T08:28:59;94663.41;;;6.76;64.35
5691;BME280;2870;42.680;23.364;2023-02-04T08:31:25;94642.25;;;6.18;65.58
5691;BME280;2870;42.680;23.364;2023-02-04T08:33:52;94654.16;;;6.81;64.46
5691;BME280;2870;42.680;23.364;2023-02-04T08:36:19;94647.53;;;6.43;64.91
5691;BME280;2870;42.680;23.364;2023-02-04T08:38:46;94655.31;;;6.23;65.38
5691;BME280;2870;42.680;23.364;2023-02-04T08:41:14;94644.25;;;6.10;67.06
5691;BME280;2870;42.680;23.364;2023-02-04T08:43:41;94636.44;;;6.29;67.00
5691;BME280;2870;42.680;23.364;2023-02-04T08:46:08;94637.50;;;6.05;67.68
5691;BME280;2870;42.680;23.364;2023-02-04T08:48:35;94641.13;;;6.34;66.85
5691;BME280;2870;42.680;23.364;2023-02-04T08:51:02;94639.22;;;6.29;66.66
5691;BME280;2870;42.680;23.364;2023-02-04T08:53:28;94640.25;;;6.40;66.45
5691;BME280;2870;42.680;23.364;2023-02-04T08:55:55;94643.34;;;6.57;66.39
5691;BME280;2870;42.680;23.364;2023-02-04T08:58:24;94644.78;;;6.50;65.87
5691;BME280;2870;42.680;23.364;2023-02-04T09:00:50;94649.63;;;6.08;68.24
5691;BME280;2870;42.680;23.364;2023-02-04T09:03:17;94647.56;;;6.08;68.08
5691;BME280;2870;42.680;23.364;2023-02-04T09:05:44;94643.69;;;5.77;69.65
5691;BME280;2870;42.680;23.364;2023-02-04T09:08:12;94642.38;;;6.47;69.48
5691;BME280;2870;42.680;23.364;2023-02-04T09:10:40;94646.09;;;6.49;67.49
5691;BME280;2870;42.680;23.364;2023-02-04T09:13:06;94645.63;;;6.37;68.81
5691;BME280;2870;42.680;23.364;2023-02-04T09:15:37;94641.78;;;6.06;69.21
5691;BME280;2870;42.680;23.364;2023-02-04T09:18:04;94634.59;;;6.53;67.90
5691;BME280;2870;42.680;23.364;2023-02-04T09:20:39;94640.13;;;6.74;66.21
5691;BME280;2870;42.680;23.364;2023-02-04T09:23:05;94629.34;;;6.70;66.03
5691;BME280;2870;42.680;23.364;2023-02-04T09:25:33;94626.81;;;6.30;67.38
5691;BME280;2870;42.680;23.364;2023-02-04T09:28:00;94629.38;;;6.49;66.72
5691;BME280;2870;42.680;23.364;2023-02-04T09:30:27;94624.44;;;6.63;66.52
5691;BME280;2870;42.680;23.364;2023-02-04T09:32:55;94632.44;;;6.87;64.66
5691;BME280;2870;42.680;23.364;2023-02-04T09:35:22;94627.00;;;6.53;64.15
5691;BME280;2870;42.680;23.364;2023-02-04T09:37:49;94615.97;;;6.06;66.10
5691;BME280;2870;42.680;23.364;2023-02-04T09:40:16;94605.94;;;6.03;67.26
5691;BME280;2870;42.680;23.364;2023-02-04T09:42:46;94629.84;;;5.98;69.91
5691;BME280;2870;42.680;23.364;2023-02-04T09:45:16;94628.63;;;6.07;72.61
5691;BME280;2870;42.680;23.364;2023-02-04T09:47:43;94631.88;;;6.40;72.13
5691;BME280;2870;42.680;23.364;2023-02-04T09:50:15;94625.38;;;6.16;73.09
5691;BME280;2870;42.680;23.364;2023-02-04T09:52:45;94615.44;;;6.49;74.10
5691;BME280;2870;42.680;23.364;2023-02-04T09:55:13;94597.22;;;5.85;75.65
5691;BME280;2870;42.680;23.364;2023-02-04T09:57:41;94606.28;;;6.20;76.14
5691;BME280;2870;42.680;23.364;2023-02-04T10:00:15;94610.88;;;6.38;77.22
5691;BME280;2870;42.680;23.364;2023-02-04T10:02:42;94605.59;;;6.48;74.93
5691;BME280;2870;42.680;23.364;2023-02-04T10:05:14;94606.13;;;6.05;76.16
5691;BME280;2870;42.680;23.364;2023-02-04T10:07:41;94611.38;;;5.74;78.26
5691;BME280;2870;42.680;23.364;2023-02-04T10:10:14;94615.09;;;5.43;78.46
5691;BME280;2870;42.680;23.364;2023-02-04T10:12:43;94605.25;;;5.42;79.11
5691;BME280;2870;42.680;23.364;2023-02-04T10:15:12;94579.31;;;5.60;78.72
5691;BME280;2870;42.680;23.364;2023-02-04T10:17:40;94601.31;;;5.37;78.95
5691;BME280;2870;42.680;23.364;2023-02-04T10:20:13;94580.16;;;5.68;78.23
5691;BME280;2870;42.680;23.364;2023-02-04T10:22:40;94585.47;;;6.00;77.18
5691;BME280;2870;42.680;23.364;2023-02-04T10:25:11;94580.22;;;5.42;77.78
5691;BME280;2870;42.680;23.364;2023-02-04T10:27:46;94551.34;;;5.45;77.87
5691;BME280;2870;42.680;23.364;2023-02-04T10:30:18;94581.03;;;5.84;78.60
5691;BME280;2870;42.680;23.364;2023-02-04T10:32:45;94572.19;;;6.06;77.13
5691;BME280;2870;42.680;23.364;2023-02-04T10:35:15;94570.28;;;6.22;76.97
5691;BME280;2870;42.680;23.364;2023-02-04T10:37:43;94574.25;;;6.34;75.05
5691;BME280;2870;42.680;23.364;2023-02-04T10:40:25;94582.16;;;6.72;74.87
5691;BME280;2870;42.680;23.364;2023-02-04T10:42:52;94560.56;;;6.16;77.53
5691;BME280;2870;42.680;23.364;2023-02-04T10:45:23;94566.97;;;5.90;78.36
5691;BME280;2870;42.680;23.364;2023-02-04T10:47:52;94566.44;;;5.36;80.38
5691;BME280;2870;42.680;23.364;2023-02-04T10:50:22;94561.31;;;5.95;80.39
5691;BME280;2870;42.680;23.364;2023-02-04T10:52:51;94553.88;;;5.77;81.76
5691;BME280;2870;42.680;23.364;2023-02-04T10:55:39;94549.38;;;5.53;82.20
5691;BME280;2870;42.680;23.364;2023-02-04T10:58:08;94556.47;;;5.75;81.89
5691;BME280;2870;42.680;23.364;2023-02-04T11:00:36;94549.94;;;5.51;83.47
5691;BME280;2870;42.680;23.364;2023-02-04T11:03:06;94547.75;;;5.92;81.18
5691;BME280;2870;42.680;23.364;2023-02-04T11:05:36;94547.06;;;5.99;83.44
5691;BME280;2870;42.680;23.364;2023-02-04T11:08:19;94540.63;;;6.04;80.60
5691;BME280;2870;42.680;23.364;2023-02-04T11:10:49;94548.91;;;5.96;81.66
5691;BME280;2870;42.680;23.364;2023-02-04T11:13:24;94550.69;;;6.07;80.71
5691;BME280;2870;42.680;23.364;2023-02-04T11:16:07;94543.00;;;5.45;81.95
5691;BME280;2870;42.680;23.364;2023-02-04T11:18:45;94537.63;;;6.02;81.55
5691;BME280;2870;42.680;23.364;2023-02-04T11:21:22;94528.53;;;6.01;80.59
5691;BME280;2870;42.680;23.364;2023-02-04T11:23:49;94532.72;;;6.16;80.11
5691;BME280;2870;42.680;23.364;2023-02-04T11:26:17;94536.16;;;6.29;81.99
5691;BME280;2870;42.680;23.364;2023-02-04T11:29:09;94535.56;;;6.52;79.17
5691;BME280;2870;42.680;23.364;2023-02-04T11:31:57;94538.00;;;5.85;79.64
5691;BME280;2870;42.680;23.364;2023-02-04T11:34:27;94537.53;;;6.15;79.18
5691;BME280;2870;42.680;23.364;2023-02-04T11:37:03;94543.41;;;6.04;81.00
5691;BME280;2870;42.680;23.364;2023-02-04T11:39:33;94552.50;;;6.04;79.49
5691;BME280;2870;42.680;23.364;2023-02-04T11:42:01;94536.66;;;6.20;80.29
5691;BME280;2870;42.680;23.364;2023-02-04T11:44:28;94542.84;;;6.26;80.40
5691;BME280;2870;42.680;23.364;2023-02-04T11:46:56;94548.56;;;6.00;81.08
5691;BME280;2870;42.680;23.364;2023-02-04T11:49:25;94551.81;;;6.11;81.63
5691;BME280;2870;42.680;23.364;2023-02-04T11:52:04;94549.16;;;6.27;80.00
5691;BME280;2870;42.680;23.364;2023-02-04T11:54:33;94543.78;;;6.29;80.57
5691;BME280;2870;42.680;23.364;2023-02-04T11:57:00;94543.88;;;6.16;80.20
5691;BME280;2870;42.680;23.364;2023-02-04T11:59:27;94552.03;;;5.93;81.14
5691;BME280;2870;42.680;23.364;2023-02-04T12:02:03;94543.63;;;6.34;81.93
5691;BME280;2870;42.680;23.364;2023-02-04T12:04:30;94555.47;;;5.85;81.47
5691;BME280;2870;42.680;23.364;2023-02-04T12:06:58;94537.78;;;5.62;82.77
5691;BME280;2870;42.680;23.364;2023-02-04T12:09:28;94542.38;;;5.94;81.46
5691;BME280;2870;42.680;23.364;2023-02-04T12:11:57;94541.19;;;5.89;80.40
5691;BME280;2870;42.680;23.364;2023-02-04T12:14:29;94523.53;;;5.66;80.95
5691;BME280;2870;42.680;23.364;2023-02-04T12:16:56;94535.97;;;5.85;81.68
5691;BME280;2870;42.680;23.364;2023-02-04T12:19:23;94521.69;;;5.89;82.25
5691;BME280;2870;42.680;23.364;2023-02-04T12:21:50;94527.00;;;6.21;80.53
5691;BME280;2870;42.680;23.364;2023-02-04T12:24:16;94529.47;;;6.04;80.36
5691;BME280;2870;42.680;23.364;2023-02-04T12:26:45;94527.78;;;6.01;82.23
5691;BME280;2870;42.680;23.364;2023-02-04T12:29:12;94519.69;;;5.69;85.64
5691;BME280;2870;42.680;23.364;2023-02-04T12:31:38;94514.84;;;5.69;85.63
5691;BME280;2870;42.680;23.364;2023-02-04T12:34:05;94516.44;;;6.20;83.04
5691;BME280;2870;42.680;23.364;2023-02-04T12:36:32;94519.53;;;5.74;84.11
5691;BME280;2870;42.680;23.364;2023-02-04T12:38:59;94522.59;;;6.05;83.20
5691;BME280;2870;42.680;23.364;2023-02-04T12:41:27;94519.81;;;6.05;82.25
5691;BME280;2870;42.680;23.364;2023-02-04T12:43:55;94515.16;;;6.00;82.73
5691;BME280;2870;42.680;23.364;2023-02-04T12:46:22;94513.66;;;5.99;83.05
5691;BME280;2870;42.680;23.364;2023-02-04T12:48:49;94526.75;;;6.11;83.48
5691;BME280;2870;42.680;23.364;2023-02-04T12:51:16;94512.09;;;5.90;83.26
5691;BME280;2870;42.680;23.364;2023-02-04T12:53:43;94516.53;;;5.51;84.37
5691;BME280;2870;42.680;23.364;2023-02-04T12:56:10;94518.81;;;5.95;82.73
5691;BME280;2870;42.680;23.364;2023-02-04T12:58:36;94506.72;;;6.13;80.58
5691;BME280;2870;42.680;23.364;2023-02-04T13:01:05;94519.84;;;6.33;81.36
5691;BME280;2870;42.680;23.364;2023-02-04T13:03:31;94514.72;;;5.75;80.14
5691;BME280;2870;42.680;23.364;2023-02-04T13:05:59;94514.97;;;6.26;79.05
5691;BME280;2870;42.680;23.364;2023-02-04T13:08:25;94511.94;;;6.17;77.29
5691;BME280;2870;42.680;23.364;2023-02-04T13:10:53;94516.28;;;6.04;79.67
5691;BME280;2870;42.680;23.364;2023-02-04T13:13:21;94517.25;;;6.07;77.78
5691;BME280;2870;42.680;23.364;2023-02-04T13:15:48;94527.09;;;6.08;77.97
5691;BME280;2870;42.680;23.364;2023-02-04T13:18:16;94531.72;;;5.84;79.01
5691;BME280;2870;42.680;23.364;2023-02-04T13:20:43;94525.50;;;5.78;78.14
5691;BME280;2870;42.680;23.364;2023-02-04T13:23:11;94525.25;;;5.69;79.02
5691;BME280;2870;42.680;23.364;2023-02-04T13:25:38;94532.56;;;5.58;80.04